sensor_id;sensor_type;location;lat;lon;timestamp;P1;durP1;ratioP1;P2;durP2;ratioP2
21729;SDS011;11027;51.030;13.812;2024-03-02T00:02:04;40.60;;;30.13;;
21729;SDS011;11027;51.030;13.812;2024-03-02T00:04:31;42.13;;;29.98;;
21729;SDS011;11027;51.030;13.812;2024-03-02T00:06:56;46.63;;;29.90;;
21729;SDS011;11027;51.030;13.812;2024-03-02T00:09:21;41.15;;;30.08;;
21729;SDS011;11027;51.030;13.812;2024-03-02T00:11:47;39.85;;;29.35;;
21729;SDS011;11027;51.030;13.812;2024-03-02T00:14:12;39.55;;;28.98;;
21729;SDS011;11027;51.030;13.812;2024-03-02T00:16:37;42.60;;;29.80;;
21729;SDS011;11027;51.030;13.812;2024-03-02T00:19:03;44.50;;;29.65;;
21729;SDS011;11027;51.030;13.812;2024-03-02T00:21:30;43.50;;;31.27;;
21729;SDS011;11027;51.030;13.812;2024-03-02T00:23:56;42.70;;;29.63;;
21729;SDS011;11027;51.030;13.812;2024-03-02T00:26:21;46.35;;;31.38;;
21729;SDS011;11027;51.030;13.812;2024-03-02T00:28:47;44.33;;;29.42;;
21729;SDS011;11027;51.030;13.812;2024-03-02T00:31:14;44.50;;;30.77;;
21729;SDS011;11027;51.030;13.812;2024-03-02T00:33:49;42.55;;;30.77;;
21729;SDS011;11027;51.030;13.812;2024-03-02T00:36:15;41.00;;;30.70;;
21729;SDS011;11027;51.030;13.812;2024-03-02T00:38:46;46.55;;;31.70;;
21729;SDS011;11027;51.030;13.812;2024-03-02T00:41:26;42.92;;;30.15;;
21729;SDS011;11027;51.030;13.812;2024-03-02T00:43:57;42.28;;;31.30;;
21729;SDS011;11027;51.030;13.812;2024-03-02T00:46:24;43.25;;;30.35;;
21729;SDS011;11027;51.030;13.812;2024-03-02T00:48:57;41.33;;;31.40;;
21729;SDS011;11027;51.030;13.812;2024-03-02T00:51:23;41.17;;;30.90;;
21729;SDS011;11027;51.030;13.812;2024-03-02T00:53:51;43.55;;;31.05;;
21729;SDS011;11027;51.030;13.812;2024-03-02T00:56:17;45.22;;;31.65;;
21729;SDS011;11027;51.030;13.812;2024-03-02T00:58:43;44.35;;;30.58;;
21729;SDS011;11027;51.030;13.812;2024-03-02T01:01:08;42.53;;;30.20;;
21729;SDS011;11027;51.030;13.812;2024-03-02T01:03:34;42.80;;;29.52;;
21729;SDS011;11027;51.030;13.812;2024-03-02T01:06:00;39.97;;;30.42;;
21729;SDS011;11027;51.030;13.812;2024-03-02T01:08:25;46.80;;;30.23;;
21729;SDS011;11027;51.030;13.812;2024-03-02T01:10:51;44.15;;;30.70;;
21729;SDS011;11027;51.030;13.812;2024-03-02T01:13:16;43.10;;;31.13;;
21729;SDS011;11027;51.030;13.812;2024-03-02T01:15:41;42.53;;;31.00;;
21729;SDS011;11027;51.030;13.812;2024-03-02T01:18:07;40.08;;;30.35;;
21729;SDS011;11027;51.030;13.812;2024-03-02T01:20:32;44.53;;;30.75;;
21729;SDS011;11027;51.030;13.812;2024-03-02T01:22:58;41.10;;;30.95;;
21729;SDS011;11027;51.030;13.812;2024-03-02T01:25:23;41.78;;;30.40;;
21729;SDS011;11027;51.030;13.812;2024-03-02T01:27:48;42.55;;;30.73;;
21729;SDS011;11027;51.030;13.812;2024-03-02T01:30:14;42.10;;;30.27;;
21729;SDS011;11027;51.030;13.812;2024-03-02T01:32:39;42.17;;;30.55;;
21729;SDS011;11027;51.030;13.812;2024-03-02T01:35:05;41.50;;;30.77;;
21729;SDS011;11027;51.030;13.812;2024-03-02T01:37:30;42.92;;;31.42;;
21729;SDS011;11027;51.030;13.812;2024-03-02T01:39:55;42.60;;;30.73;;
21729;SDS011;11027;51.030;13.812;2024-03-02T01:42:21;41.33;;;30.90;;
21729;SDS011;11027;51.030;13.812;2024-03-02T01:44:46;40.88;;;30.00;;
21729;SDS011;11027;51.030;13.812;2024-03-02T01:47:11;41.97;;;30.90;;
21729;SDS011;11027;51.030;13.812;2024-03-02T01:49:37;45.92;;;31.58;;
21729;SDS011;11027;51.030;13.812;2024-03-02T01:52:03;45.22;;;32.28;;
21729;SDS011;11027;51.030;13.812;2024-03-02T01:54:29;45.28;;;32.72;;
21729;SDS011;11027;51.030;13.812;2024-03-02T01:56:54;46.00;;;31.85;;
21729;SDS011;11027;51.030;13.812;2024-03-02T01:59:20;43.97;;;31.83;;
21729;SDS011;11027;51.030;13.812;2024-03-02T02:01:45;49.10;;;33.05;;
21729;SDS011;11027;51.030;13.812;2024-03-02T02:04:10;45.00;;;32.65;;
21729;SDS011;11027;51.030;13.812;2024-03-02T02:06:36;44.08;;;32.55;;
21729;SDS011;11027;51.030;13.812;2024-03-02T02:09:01;47.08;;;33.00;;
21729;SDS011;11027;51.030;13.812;2024-03-02T02:11:26;48.28;;;34.30;;
21729;SDS011;11027;51.030;13.812;2024-03-02T02:13:51;48.22;;;33.17;;
21729;SDS011;11027;51.030;13.812;2024-03-02T02:16:17;52.17;;;34.50;;
21729;SDS011;11027;51.030;13.812;2024-03-02T02:18:42;46.05;;;33.13;;
21729;SDS011;11027;51.030;13.812;2024-03-02T02:21:07;45.75;;;32.95;;
21729;SDS011;11027;51.030;13.812;2024-03-02T02:23:33;46.90;;;32.75;;
21729;SDS011;11027;51.030;13.812;2024-03-02T02:25:58;48.13;;;33.75;;
21729;SDS011;11027;51.030;13.812;2024-03-02T02:28:23;47.80;;;33.38;;
21729;SDS011;11027;51.030;13.812;2024-03-02T02:30:48;50.75;;;35.05;;
21729;SDS011;11027;51.030;13.812;2024-03-02T02:33:14;52.17;;;35.85;;
21729;SDS011;11027;51.030;13.812;2024-03-02T02:35:39;57.30;;;37.83;;
21729;SDS011;11027;51.030;13.812;2024-03-02T02:38:04;57.55;;;37.08;;
21729;SDS011;11027;51.030;13.812;2024-03-02T02:40:30;54.97;;;36.63;;
21729;SDS011;11027;51.030;13.812;2024-03-02T02:42:56;54.38;;;35.50;;
21729;SDS011;11027;51.030;13.812;2024-03-02T02:45:21;60.17;;;36.92;;
21729;SDS011;11027;51.030;13.812;2024-03-02T02:47:47;52.67;;;35.97;;
21729;SDS011;11027;51.030;13.812;2024-03-02T02:50:12;60.80;;;38.47;;
21729;SDS011;11027;51.030;13.812;2024-03-02T02:52:38;63.50;;;38.08;;
21729;SDS011;11027;51.030;13.812;2024-03-02T02:55:05;60.95;;;38.20;;
21729;SDS011;11027;51.030;13.812;2024-03-02T02:57:32;62.03;;;39.85;;
21729;SDS011;11027;51.030;13.812;2024-03-02T03:00:02;58.05;;;37.03;;
21729;SDS011;11027;51.030;13.812;2024-03-02T03:02:30;60.38;;;37.13;;
21729;SDS011;11027;51.030;13.812;2024-03-02T03:04:55;59.53;;;37.50;;
21729;SDS011;11027;51.030;13.812;2024-03-02T03:07:22;61.03;;;38.75;;
21729;SDS011;11027;51.030;13.812;2024-03-02T03:09:47;62.47;;;38.20;;
21729;SDS011;11027;51.030;13.812;2024-03-02T03:12:12;59.90;;;38.47;;
21729;SDS011;11027;51.030;13.812;2024-03-02T03:14:39;60.45;;;37.08;;
21729;SDS011;11027;51.030;13.812;2024-03-02T03:17:05;61.42;;;39.55;;
21729;SDS011;11027;51.030;13.812;2024-03-02T03:19:32;63.17;;;39.85;;
21729;SDS011;11027;51.030;13.812;2024-03-02T03:21:57;61.38;;;37.33;;
21729;SDS011;11027;51.030;13.812;2024-03-02T03:24:22;62.60;;;37.90;;
21729;SDS011;11027;51.030;13.812;2024-03-02T03:26:47;62.08;;;38.85;;
21729;SDS011;11027;51.030;13.812;2024-03-02T03:29:12;64.07;;;37.13;;
21729;SDS011;11027;51.030;13.812;2024-03-02T03:31:38;69.50;;;39.35;;
21729;SDS011;11027;51.030;13.812;2024-03-02T03:34:03;66.90;;;37.65;;
21729;SDS011;11027;51.030;13.812;2024-03-02T03:36:28;62.85;;;37.22;;
21729;SDS011;11027;51.030;13.812;2024-03-02T03:38:53;65.63;;;38.42;;
21729;SDS011;11027;51.030;13.812;2024-03-02T03:41:19;70.00;;;40.22;;
21729;SDS011;11027;51.030;13.812;2024-03-02T03:43:44;71.28;;;40.28;;
21729;SDS011;11027;51.030;13.812;2024-03-02T03:46:09;70.15;;;39.90;;
21729;SDS011;11027;51.030;13.812;2024-03-02T03:48:35;67.20;;;37.85;;
21729;SDS011;11027;51.030;13.812;2024-03-02T03:51:00;70.18;;;38.88;;
21729;SDS011;11027;51.030;13.812;2024-03-02T03:53:25;70.50;;;40.42;;
21729;SDS011;11027;51.030;13.812;2024-03-02T03:55:50;74.68;;;40.20;;
21729;SDS011;11027;51.030;13.812;2024-03-02T03:58:16;72.68;;;40.42;;
21729;SDS011;11027;51.030;13.812;2024-03-02T04:00:42;78.95;;;42.80;;
21729;SDS011;11027;51.030;13.812;2024-03-02T04:03:07;71.97;;;40.80;;
21729;SDS011;11027;51.030;13.812;2024-03-02T04:05:33;75.03;;;40.97;;
21729;SDS011;11027;51.030;13.812;2024-03-02T04:07:58;77.10;;;40.53;;
21729;SDS011;11027;51.030;13.812;2024-03-02T04:10:23;73.97;;;40.60;;
21729;SDS011;11027;51.030;13.812;2024-03-02T04:12:49;74.57;;;41.40;;
21729;SDS011;11027;51.030;13.812;2024-03-02T04:15:15;71.25;;;40.05;;
21729;SDS011;11027;51.030;13.812;2024-03-02T04:17:40;75.15;;;40.30;;
21729;SDS011;11027;51.030;13.812;2024-03-02T04:20:06;71.93;;;40.47;;
21729;SDS011;11027;51.030;13.812;2024-03-02T04:22:32;74.70;;;40.75;;
21729;SDS011;11027;51.030;13.812;2024-03-02T04:24:58;72.05;;;40.03;;
21729;SDS011;11027;51.030;13.812;2024-03-02T04:27:23;75.70;;;41.80;;
21729;SDS011;11027;51.030;13.812;2024-03-02T04:29:48;75.80;;;41.35;;
21729;SDS011;11027;51.030;13.812;2024-03-02T04:32:14;75.00;;;40.75;;
21729;SDS011;11027;51.030;13.812;2024-03-02T04:34:39;73.22;;;39.65;;
21729;SDS011;11027;51.030;13.812;2024-03-02T04:37:04;70.05;;;38.00;;
21729;SDS011;11027;51.030;13.812;2024-03-02T04:39:30;72.88;;;39.70;;
21729;SDS011;11027;51.030;13.812;2024-03-02T04:41:55;70.45;;;40.05;;
21729;SDS011;11027;51.030;13.812;2024-03-02T04:44:20;72.30;;;40.58;;
21729;SDS011;11027;51.030;13.812;2024-03-02T04:46:45;73.68;;;39.30;;
21729;SDS011;11027;51.030;13.812;2024-03-02T04:49:11;72.40;;;39.47;;
21729;SDS011;11027;51.030;13.812;2024-03-02T04:51:36;70.75;;;39.85;;
21729;SDS011;11027;51.030;13.812;2024-03-02T04:54:01;71.50;;;39.72;;
21729;SDS011;11027;51.030;13.812;2024-03-02T04:56:26;63.97;;;36.97;;
21729;SDS011;11027;51.030;13.812;2024-03-02T04:58:57;69.32;;;38.88;;
21729;SDS011;11027;51.030;13.812;2024-03-02T05:01:23;66.40;;;37.28;;
21729;SDS011;11027;51.030;13.812;2024-03-02T05:03:48;65.35;;;38.28;;
21729;SDS011;11027;51.030;13.812;2024-03-02T05:06:13;64.10;;;36.33;;
21729;SDS011;11027;51.030;13.812;2024-03-02T05:08:38;65.25;;;36.95;;
21729;SDS011;11027;51.030;13.812;2024-03-02T05:11:04;63.15;;;35.15;;
21729;SDS011;11027;51.030;13.812;2024-03-02T05:13:48;59.05;;;34.75;;
21729;SDS011;11027;51.030;13.812;2024-03-02T05:16:13;62.55;;;35.08;;
21729;SDS011;11027;51.030;13.812;2024-03-02T05:18:38;62.92;;;35.63;;
21729;SDS011;11027;51.030;13.812;2024-03-02T05:21:04;65.22;;;36.58;;
21729;SDS011;11027;51.030;13.812;2024-03-02T05:23:29;62.17;;;34.80;;
21729;SDS011;11027;51.030;13.812;2024-03-02T05:25:54;55.05;;;34.38;;
21729;SDS011;11027;51.030;13.812;2024-03-02T05:28:19;59.47;;;33.95;;
21729;SDS011;11027;51.030;13.812;2024-03-02T05:30:45;53.58;;;32.75;;
21729;SDS011;11027;51.030;13.812;2024-03-02T05:33:11;55.03;;;32.72;;
21729;SDS011;11027;51.030;13.812;2024-03-02T05:35:36;57.35;;;32.70;;
21729;SDS011;11027;51.030;13.812;2024-03-02T05:38:01;55.20;;;33.13;;
21729;SDS011;11027;51.030;13.812;2024-03-02T05:40:27;53.45;;;32.67;;
21729;SDS011;11027;51.030;13.812;2024-03-02T05:42:52;59.05;;;33.58;;
21729;SDS011;11027;51.030;13.812;2024-03-02T05:45:17;52.25;;;32.42;;
21729;SDS011;11027;51.030;13.812;2024-03-02T05:47:43;55.75;;;33.20;;
21729;SDS011;11027;51.030;13.812;2024-03-02T05:50:08;53.75;;;32.13;;
21729;SDS011;11027;51.030;13.812;2024-03-02T05:52:33;52.92;;;32.35;;
21729;SDS011;11027;51.030;13.812;2024-03-02T05:54:59;50.72;;;32.70;;
21729;SDS011;11027;51.030;13.812;2024-03-02T05:57:24;53.38;;;32.35;;
21729;SDS011;11027;51.030;13.812;2024-03-02T06:00:08;56.80;;;32.72;;
21729;SDS011;11027;51.030;13.812;2024-03-02T06:02:33;60.42;;;33.97;;
21729;SDS011;11027;51.030;13.812;2024-03-02T06:05:00;56.97;;;33.42;;
21729;SDS011;11027;51.030;13.812;2024-03-02T06:07:25;52.53;;;32.75;;
21729;SDS011;11027;51.030;13.812;2024-03-02T06:09:50;58.50;;;34.30;;
21729;SDS011;11027;51.030;13.812;2024-03-02T06:12:17;52.85;;;33.10;;
21729;SDS011;11027;51.030;13.812;2024-03-02T06:14:43;60.28;;;35.40;;
21729;SDS011;11027;51.030;13.812;2024-03-02T06:17:08;59.35;;;35.45;;
21729;SDS011;11027;51.030;13.812;2024-03-02T06:19:33;54.72;;;32.72;;
21729;SDS011;11027;51.030;13.812;2024-03-02T06:21:58;50.38;;;32.35;;
21729;SDS011;11027;51.030;13.812;2024-03-02T06:24:24;52.80;;;32.63;;
21729;SDS011;11027;51.030;13.812;2024-03-02T06:26:51;53.25;;;32.90;;
21729;SDS011;11027;51.030;13.812;2024-03-02T06:29:17;52.95;;;32.20;;
21729;SDS011;11027;51.030;13.812;2024-03-02T06:31:42;57.33;;;33.92;;
21729;SDS011;11027;51.030;13.812;2024-03-02T06:34:07;55.08;;;33.72;;
21729;SDS011;11027;51.030;13.812;2024-03-02T06:36:33;55.30;;;32.80;;
21729;SDS011;11027;51.030;13.812;2024-03-02T06:38:58;57.33;;;33.72;;
21729;SDS011;11027;51.030;13.812;2024-03-02T06:41:24;57.00;;;33.50;;
21729;SDS011;11027;51.030;13.812;2024-03-02T06:43:49;56.38;;;32.72;;
21729;SDS011;11027;51.030;13.812;2024-03-02T06:46:14;58.00;;;33.47;;
21729;SDS011;11027;51.030;13.812;2024-03-02T06:48:40;57.83;;;32.05;;
21729;SDS011;11027;51.030;13.812;2024-03-02T06:51:05;57.88;;;33.15;;
21729;SDS011;11027;51.030;13.812;2024-03-02T06:53:30;60.58;;;33.20;;
21729;SDS011;11027;51.030;13.812;2024-03-02T06:55:58;55.28;;;32.15;;
21729;SDS011;11027;51.030;13.812;2024-03-02T06:58:23;62.08;;;33.53;;
21729;SDS011;11027;51.030;13.812;2024-03-02T07:00:48;57.83;;;32.58;;
21729;SDS011;11027;51.030;13.812;2024-03-02T07:03:14;58.28;;;32.72;;
21729;SDS011;11027;51.030;13.812;2024-03-02T07:05:39;61.25;;;33.72;;
21729;SDS011;11027;51.030;13.812;2024-03-02T07:08:04;58.67;;;32.38;;
21729;SDS011;11027;51.030;13.812;2024-03-02T07:10:30;56.78;;;33.28;;
21729;SDS011;11027;51.030;13.812;2024-03-02T07:12:56;60.35;;;34.17;;
21729;SDS011;11027;51.030;13.812;2024-03-02T07:15:21;65.43;;;34.95;;
21729;SDS011;11027;51.030;13.812;2024-03-02T07:18:02;62.35;;;34.42;;
21729;SDS011;11027;51.030;13.812;2024-03-02T07:20:27;67.32;;;35.67;;
21729;SDS011;11027;51.030;13.812;2024-03-02T07:22:53;65.68;;;35.00;;
21729;SDS011;11027;51.030;13.812;2024-03-02T07:25:18;65.05;;;35.92;;
21729;SDS011;11027;51.030;13.812;2024-03-02T07:27:43;65.20;;;34.25;;
21729;SDS011;11027;51.030;13.812;2024-03-02T07:30:09;60.83;;;34.55;;
21729;SDS011;11027;51.030;13.812;2024-03-02T07:32:36;62.65;;;34.47;;
21729;SDS011;11027;51.030;13.812;2024-03-02T07:35:01;66.60;;;35.65;;
21729;SDS011;11027;51.030;13.812;2024-03-02T07:37:28;65.55;;;35.08;;
21729;SDS011;11027;51.030;13.812;2024-03-02T07:39:53;68.47;;;36.72;;
21729;SDS011;11027;51.030;13.812;2024-03-02T07:42:19;65.00;;;35.97;;
21729;SDS011;11027;51.030;13.812;2024-03-02T07:44:44;67.53;;;36.67;;
21729;SDS011;11027;51.030;13.812;2024-03-02T07:47:10;66.28;;;35.38;;
21729;SDS011;11027;51.030;13.812;2024-03-02T07:49:36;68.90;;;36.63;;
21729;SDS011;11027;51.030;13.812;2024-03-02T07:52:01;67.05;;;36.13;;
21729;SDS011;11027;51.030;13.812;2024-03-02T07:54:26;72.60;;;37.95;;
21729;SDS011;11027;51.030;13.812;2024-03-02T07:56:52;69.28;;;36.85;;
21729;SDS011;11027;51.030;13.812;2024-03-02T07:59:17;64.80;;;36.30;;
21729;SDS011;11027;51.030;13.812;2024-03-02T08:01:43;74.43;;;38.67;;
21729;SDS011;11027;51.030;13.812;2024-03-02T08:04:08;67.38;;;35.80;;
21729;SDS011;11027;51.030;13.812;2024-03-02T08:06:33;68.03;;;35.72;;
21729;SDS011;11027;51.030;13.812;2024-03-02T08:08:59;64.15;;;34.25;;
21729;SDS011;11027;51.030;13.812;2024-03-02T08:11:26;62.60;;;33.38;;
21729;SDS011;11027;51.030;13.812;2024-03-02T08:13:56;62.22;;;32.65;;
21729;SDS011;11027;51.030;13.812;2024-03-02T08:16:22;60.65;;;32.38;;
21729;SDS011;11027;51.030;13.812;2024-03-02T08:18:48;62.38;;;33.47;;
21729;SDS011;11027;51.030;13.812;2024-03-02T08:21:14;62.00;;;32.85;;
21729;SDS011;11027;51.030;13.812;2024-03-02T08:23:40;57.08;;;29.98;;
21729;SDS011;11027;51.030;13.812;2024-03-02T08:26:07;53.72;;;28.98;;
21729;SDS011;11027;51.030;13.812;2024-03-02T08:28:33;52.28;;;28.25;;
21729;SDS011;11027;51.030;13.812;2024-03-02T08:30:58;49.03;;;27.17;;
21729;SDS011;11027;51.030;13.812;2024-03-02T08:33:24;54.83;;;28.08;;
21729;SDS011;11027;51.030;13.812;2024-03-02T08:35:49;51.60;;;27.48;;
21729;SDS011;11027;51.030;13.812;2024-03-02T08:38:14;51.28;;;29.08;;
21729;SDS011;11027;51.030;13.812;2024-03-02T08:40:39;48.95;;;25.83;;
21729;SDS011;11027;51.030;13.812;2024-03-02T08:43:05;51.28;;;27.38;;
21729;SDS011;11027;51.030;13.812;2024-03-02T08:45:31;50.88;;;27.88;;
21729;SDS011;11027;51.030;13.812;2024-03-02T08:47:56;46.22;;;25.65;;
21729;SDS011;11027;51.030;13.812;2024-03-02T08:50:21;45.58;;;25.85;;
21729;SDS011;11027;51.030;13.812;2024-03-02T08:52:47;44.17;;;24.77;;
21729;SDS011;11027;51.030;13.812;2024-03-02T08:55:12;46.58;;;25.75;;
21729;SDS011;11027;51.030;13.812;2024-03-02T08:57:37;47.17;;;26.52;;
21729;SDS011;11027;51.030;13.812;2024-03-02T09:00:03;44.55;;;25.60;;
21729;SDS011;11027;51.030;13.812;2024-03-02T09:02:30;45.08;;;26.23;;
21729;SDS011;11027;51.030;13.812;2024-03-02T09:04:56;47.35;;;27.58;;
21729;SDS011;11027;51.030;13.812;2024-03-02T09:07:21;52.72;;;28.77;;
21729;SDS011;11027;51.030;13.812;2024-03-02T09:09:46;48.63;;;27.17;;
21729;SDS011;11027;51.030;13.812;2024-03-02T09:12:11;45.05;;;26.85;;
21729;SDS011;11027;51.030;13.812;2024-03-02T09:14:37;44.53;;;25.15;;
21729;SDS011;11027;51.030;13.812;2024-03-02T09:17:03;42.50;;;25.48;;
21729;SDS011;11027;51.030;13.812;2024-03-02T09:19:31;45.33;;;25.10;;
21729;SDS011;11027;51.030;13.812;2024-03-02T09:21:56;44.05;;;25.65;;
21729;SDS011;11027;51.030;13.812;2024-03-02T09:24:23;44.42;;;25.42;;
21729;SDS011;11027;51.030;13.812;2024-03-02T09:26:49;44.05;;;24.67;;
21729;SDS011;11027;51.030;13.812;2024-03-02T09:29:14;43.22;;;25.02;;
21729;SDS011;11027;51.030;13.812;2024-03-02T09:31:40;42.50;;;25.52;;
21729;SDS011;11027;51.030;13.812;2024-03-02T09:34:06;44.75;;;26.40;;
21729;SDS011;11027;51.030;13.812;2024-03-02T09:36:32;50.83;;;26.50;;
21729;SDS011;11027;51.030;13.812;2024-03-02T09:38:57;45.88;;;26.63;;
21729;SDS011;11027;51.030;13.812;2024-03-02T09:41:22;47.88;;;26.30;;
21729;SDS011;11027;51.030;13.812;2024-03-02T09:43:48;43.72;;;25.75;;
21729;SDS011;11027;51.030;13.812;2024-03-02T09:46:13;52.13;;;29.20;;
21729;SDS011;11027;51.030;13.812;2024-03-02T09:48:40;49.38;;;28.42;;
21729;SDS011;11027;51.030;13.812;2024-03-02T09:51:05;51.33;;;27.75;;
21729;SDS011;11027;51.030;13.812;2024-03-02T09:53:31;49.78;;;26.55;;
21729;SDS011;11027;51.030;13.812;2024-03-02T09:55:59;48.22;;;26.77;;
21729;SDS011;11027;51.030;13.812;2024-03-02T09:58:25;49.00;;;26.55;;
21729;SDS011;11027;51.030;13.812;2024-03-02T10:00:50;48.72;;;26.80;;
21729;SDS011;11027;51.030;13.812;2024-03-02T10:03:15;52.95;;;26.77;;
21729;SDS011;11027;51.030;13.812;2024-03-02T10:05:43;47.75;;;25.77;;
21729;SDS011;11027;51.030;13.812;2024-03-02T10:08:08;52.35;;;27.77;;
21729;SDS011;11027;51.030;13.812;2024-03-02T10:10:34;43.70;;;26.35;;
21729;SDS011;11027;51.030;13.812;2024-03-02T10:13:11;47.60;;;26.42;;
21729;SDS011;11027;51.030;13.812;2024-03-02T10:15:40;47.30;;;27.08;;
21729;SDS011;11027;51.030;13.812;2024-03-02T10:18:10;53.97;;;27.80;;
21729;SDS011;11027;51.030;13.812;2024-03-02T10:20:40;54.92;;;27.10;;
21729;SDS011;11027;51.030;13.812;2024-03-02T10:23:15;48.03;;;27.67;;
21729;SDS011;11027;51.030;13.812;2024-03-02T10:25:42;49.45;;;26.92;;
21729;SDS011;11027;51.030;13.812;2024-03-02T10:28:08;48.70;;;27.13;;
21729;SDS011;11027;51.030;13.812;2024-03-02T10:30:34;51.80;;;28.13;;
21729;SDS011;11027;51.030;13.812;2024-03-02T10:33:00;50.08;;;27.63;;
21729;SDS011;11027;51.030;13.812;2024-03-02T10:35:26;45.92;;;25.77;;
21729;SDS011;11027;51.030;13.812;2024-03-02T10:37:57;46.55;;;25.23;;
21729;SDS011;11027;51.030;13.812;2024-03-02T10:40:23;44.28;;;25.88;;
21729;SDS011;11027;51.030;13.812;2024-03-02T10:42:52;49.38;;;26.77;;
21729;SDS011;11027;51.030;13.812;2024-03-02T10:45:17;38.83;;;23.55;;
21729;SDS011;11027;51.030;13.812;2024-03-02T10:47:44;45.65;;;24.05;;
21729;SDS011;11027;51.030;13.812;2024-03-02T10:50:12;42.28;;;24.10;;
21729;SDS011;11027;51.030;13.812;2024-03-02T10:52:37;40.20;;;23.27;;
21729;SDS011;11027;51.030;13.812;2024-03-02T10:55:04;45.58;;;23.08;;
21729;SDS011;11027;51.030;13.812;2024-03-02T10:57:39;44.03;;;22.65;;
21729;SDS011;11027;51.030;13.812;2024-03-02T11:00:24;36.40;;;22.98;;
21729;SDS011;11027;51.030;13.812;2024-03-02T11:02:56;36.72;;;21.70;;
21729;SDS011;11027;51.030;13.812;2024-03-02T11:05:26;34.92;;;18.85;;
21729;SDS011;11027;51.030;13.812;2024-03-02T11:08:00;29.35;;;17.02;;
21729;SDS011;11027;51.030;13.812;2024-03-02T11:10:52;26.13;;;15.00;;
21729;SDS011;11027;51.030;13.812;2024-03-02T11:13:22;26.98;;;13.95;;
21729;SDS011;11027;51.030;13.812;2024-03-02T11:15:52;23.88;;;14.65;;
21729;SDS011;11027;51.030;13.812;2024-03-02T11:18:23;23.65;;;14.00;;
21729;SDS011;11027;51.030;13.812;2024-03-02T11:20:49;22.20;;;13.10;;
21729;SDS011;11027;51.030;13.812;2024-03-02T11:23:15;17.85;;;9.68;;
21729;SDS011;11027;51.030;13.812;2024-03-02T11:25:40;16.20;;;10.45;;
21729;SDS011;11027;51.030;13.812;2024-03-02T11:28:06;18.88;;;9.70;;
21729;SDS011;11027;51.030;13.812;2024-03-02T11:33:00;15.17;;;8.53;;
21729;SDS011;11027;51.030;13.812;2024-03-02T11:35:26;17.20;;;8.75;;
21729;SDS011;11027;51.030;13.812;2024-03-02T11:37:53;14.15;;;9.48;;
21729;SDS011;11027;51.030;13.812;2024-03-02T11:40:21;21.17;;;11.23;;
21729;SDS011;11027;51.030;13.812;2024-03-02T11:42:47;18.50;;;11.52;;
21729;SDS011;11027;51.030;13.812;2024-03-02T11:45:16;23.85;;;11.57;;
21729;SDS011;11027;51.030;13.812;2024-03-02T11:47:46;20.35;;;12.43;;
21729;SDS011;11027;51.030;13.812;2024-03-02T11:50:15;22.38;;;12.30;;
21729;SDS011;11027;51.030;13.812;2024-03-02T11:52:40;20.73;;;12.93;;
21729;SDS011;11027;51.030;13.812;2024-03-02T11:55:07;26.08;;;14.00;;
21729;SDS011;11027;51.030;13.812;2024-03-02T11:57:34;24.92;;;12.98;;
21729;SDS011;11027;51.030;13.812;2024-03-02T12:00:00;24.33;;;12.73;;
21729;SDS011;11027;51.030;13.812;2024-03-02T12:02:28;26.05;;;13.15;;
21729;SDS011;11027;51.030;13.812;2024-03-02T12:04:54;24.92;;;12.85;;
21729;SDS011;11027;51.030;13.812;2024-03-02T12:07:19;25.95;;;13.35;;
21729;SDS011;11027;51.030;13.812;2024-03-02T12:09:49;28.33;;;12.70;;
21729;SDS011;11027;51.030;13.812;2024-03-02T12:12:24;19.38;;;11.82;;
21729;SDS011;11027;51.030;13.812;2024-03-02T12:14:50;23.30;;;11.18;;
21729;SDS011;11027;51.030;13.812;2024-03-02T12:17:17;22.02;;;13.50;;
21729;SDS011;11027;51.030;13.812;2024-03-02T12:19:42;28.60;;;13.73;;
21729;SDS011;11027;51.030;13.812;2024-03-02T12:22:08;25.77;;;13.68;;
21729;SDS011;11027;51.030;13.812;2024-03-02T12:24:33;22.02;;;13.25;;
21729;SDS011;11027;51.030;13.812;2024-03-02T12:26:58;23.55;;;13.98;;
21729;SDS011;11027;51.030;13.812;2024-03-02T12:29:24;22.23;;;12.77;;
21729;SDS011;11027;51.030;13.812;2024-03-02T12:31:50;25.65;;;13.70;;
21729;SDS011;11027;51.030;13.812;2024-03-02T12:34:17;21.40;;;12.73;;
21729;SDS011;11027;51.030;13.812;2024-03-02T12:36:43;24.00;;;12.98;;
21729;SDS011;11027;51.030;13.812;2024-03-02T12:39:12;22.77;;;12.50;;
21729;SDS011;11027;51.030;13.812;2024-03-02T12:41:38;24.10;;;12.98;;
21729;SDS011;11027;51.030;13.812;2024-03-02T12:44:04;24.13;;;12.68;;
21729;SDS011;11027;51.030;13.812;2024-03-02T12:46:30;19.90;;;12.57;;
21729;SDS011;11027;51.030;13.812;2024-03-02T12:48:56;20.10;;;12.55;;
21729;SDS011;11027;51.030;13.812;2024-03-02T12:51:21;22.23;;;12.35;;
21729;SDS011;11027;51.030;13.812;2024-03-02T12:53:52;19.13;;;11.40;;
21729;SDS011;11027;51.030;13.812;2024-03-02T12:56:18;18.23;;;11.57;;
21729;SDS011;11027;51.030;13.812;2024-03-02T12:58:44;18.05;;;11.98;;
21729;SDS011;11027;51.030;13.812;2024-03-02T13:01:09;18.48;;;11.73;;
21729;SDS011;11027;51.030;13.812;2024-03-02T13:03:38;24.35;;;13.10;;
21729;SDS011;11027;51.030;13.812;2024-03-02T13:06:04;21.48;;;12.15;;
21729;SDS011;11027;51.030;13.812;2024-03-02T13:08:31;22.25;;;12.45;;
21729;SDS011;11027;51.030;13.812;2024-03-02T13:10:56;20.33;;;12.30;;
21729;SDS011;11027;51.030;13.812;2024-03-02T13:13:21;23.55;;;12.52;;
21729;SDS011;11027;51.030;13.812;2024-03-02T13:15:48;21.63;;;12.85;;
21729;SDS011;11027;51.030;13.812;2024-03-02T13:18:13;22.60;;;12.57;;
21729;SDS011;11027;51.030;13.812;2024-03-02T13:20:38;21.95;;;12.35;;
21729;SDS011;11027;51.030;13.812;2024-03-02T13:23:04;20.50;;;12.88;;
21729;SDS011;11027;51.030;13.812;2024-03-02T13:25:30;19.10;;;11.88;;
21729;SDS011;11027;51.030;13.812;2024-03-02T13:27:56;20.75;;;11.70;;
21729;SDS011;11027;51.030;13.812;2024-03-02T13:30:22;20.58;;;12.07;;
21729;SDS011;11027;51.030;13.812;2024-03-02T13:32:47;19.00;;;11.70;;
21729;SDS011;11027;51.030;13.812;2024-03-02T13:35:12;19.48;;;11.05;;
21729;SDS011;11027;51.030;13.812;2024-03-02T13:37:38;20.20;;;11.43;;
21729;SDS011;11027;51.030;13.812;2024-03-02T13:40:03;18.77;;;10.60;;
21729;SDS011;11027;51.030;13.812;2024-03-02T13:42:30;18.40;;;10.35;;
21729;SDS011;11027;51.030;13.812;2024-03-02T13:44:55;14.27;;;9.63;;
21729;SDS011;11027;51.030;13.812;2024-03-02T13:47:21;19.58;;;10.32;;
21729;SDS011;11027;51.030;13.812;2024-03-02T13:49:46;18.13;;;10.05;;
21729;SDS011;11027;51.030;13.812;2024-03-02T13:52:14;18.60;;;10.07;;
21729;SDS011;11027;51.030;13.812;2024-03-02T13:54:40;18.05;;;9.98;;
21729;SDS011;11027;51.030;13.812;2024-03-02T13:57:07;15.73;;;9.40;;
21729;SDS011;11027;51.030;13.812;2024-03-02T13:59:34;17.88;;;9.88;;
21729;SDS011;11027;51.030;13.812;2024-03-02T14:02:00;18.65;;;10.93;;
21729;SDS011;11027;51.030;13.812;2024-03-02T14:04:30;15.90;;;10.88;;
21729;SDS011;11027;51.030;13.812;2024-03-02T14:06:58;15.02;;;10.18;;